Seabourn Odyssey — C6XC6 — position and weather

sailwx.info

Track history (hours):
 
Tides and Currents Weather Stations Pressure Air Temp Water Temp Dewpoint Dewpoint Depression Visibility Wind Speed Wind Dir Waves Ship Positions

Seabourn Odyssey

Last reported at 2017-Apr-26 11:24 UTC. Time now 2017-Apr-26 11:54 UTC.
Position N 38°03' W 000°07'.

Length 198 m; draft 6.7 m.

Type: Ship. MMSI: 309416000.

Date/timePositionNaut miles runAvg speedWind from/ knotsBaromVisibWave heightAir tempDewpointWater temp
2017-Apr-26 11:24N 38°03' W 000°07'614.5
2017-Apr-26 10:59N 37°57' W 000°11'714.5
2017-Apr-26 10:30N 37°52' W 000°16'714.2
2017-Apr-26 10:00N 37°46' W 000°20'714.3
2017-Apr-26 09:30N 37°40' W 000°25'714.3
2017-Apr-26 09:00N 37°34' W 000°30'714.1
2017-Apr-26 08:30N 37°29' W 000°37'713.9
2017-Apr-26 08:00N 37°24' W 000°43'22913.1
2017-Apr-25 14:29N 36°01' W 005°09'1515.7
2017-Apr-25 13:31N 35°57' W 005°27'915.0
2017-Apr-25 12:54N 35°55' W 005°38'  
Track history (hours):
 
Tides and Currents Weather Stations Pressure Air Temp Water Temp Dewpoint Dewpoint Depression Visibility Wind Speed Wind Dir Waves Ship Positions

Seabourn Odyssey

Last reported at 2017-Apr-26 11:24 UTC. Time now 2017-Apr-26 11:54 UTC.
Position N 38°03' W 000°07'.

Length 198 m; draft 6.7 m.

Type: Ship. MMSI: 309416000.

Date/timePositionNaut miles runAvg speedWind from/ knotsBaromVisibWave heightAir tempDewpointWater temp
2017-Apr-26 11:24N 38°03' W 000°07'614.5
2017-Apr-26 10:59N 37°57' W 000°11'714.5
2017-Apr-26 10:30N 37°52' W 000°16'714.2
2017-Apr-26 10:00N 37°46' W 000°20'714.3
2017-Apr-26 09:30N 37°40' W 000°25'714.3
2017-Apr-26 09:00N 37°34' W 000°30'714.1
2017-Apr-26 08:30N 37°29' W 000°37'713.9
2017-Apr-26 08:00N 37°24' W 000°43'22913.1
2017-Apr-25 14:29N 36°01' W 005°09'1515.7
2017-Apr-25 13:31N 35°57' W 005°27'915.0
2017-Apr-25 12:54N 35°55' W 005°38'  

Dump ship's entire track history